Terminal Aerodrome Forecast
Issued by NWS Sterling, VA

Current Version | Previous Version | Text Only | Print | Product List | Glossary Off
Versions: 1 2 3 4 5 6 7 8 9 10 11 12 13 14 15 16 17 18 19 20 21 22 23 24 25 26

000
FTUS41 KLWX 222059 AAA
TAFIAD
TAF AMD
KIAD 222059Z 2221/2324 11007KT P6SM BKN060 OVC120
     FM230000 13006KT P6SM SCT060 BKN100
     FM230400 14004KT P6SM BKN060
     FM230800 VRB03KT P6SM SCT080
     FM231500 13007KT P6SM FEW040
     FM232000 14011G19KT P6SM FEW060 SCT200=

USA.gov is the U.S. government's official web portal to all federal, state and local government web resources and services.